BST,Max TemperatureF,Mean TemperatureF,Min TemperatureF,Max Dew PointF,MeanDew PointF,Min DewpointF,Max Humidity, Mean Humidity, Min Humidity, Max Sea Level PressureIn, Mean Sea Level PressureIn, Min Sea Level PressureIn, Max VisibilityMiles, Mean VisibilityMiles, Min VisibilityMiles, Max Wind SpeedMPH, Mean Wind SpeedMPH, Max Gust SpeedMPH,PrecipitationIn, CloudCover, Events, WindDirDegrees
2013-5-1,61,50,38,41,35,27,93,61,19,30.33,30.24,30.18,19,8,5,9,6,,0.00,5,,47
2013-5-2,63,52,41,36,28,15,66,41,8,30.24,30.20,30.15,19,15,6,12,6,21,0.00,,,55
2013-5-3,66,53,40,43,38,32,87,55,26,30.20,30.11,30.06,19,9,6,15,5,,0.00,2,,277
2013-5-4,63,54,45,50,41,36,82,63,29,30.15,30.04,29.98,19,8,4,25,13,36,0.04,2,Rain,245
2013-5-5,65,54,44,50,46,40,87,68,44,30.21,30.17,30.15,19,8,6,13,8,,0.00,4,,245
2013-5-6,71,61,51,49,46,41,82,58,30,30.18,30.12,30.04,19,8,6,12,5,21,0.00,3,,223
2013-5-7,72,60,48,48,44,41,87,55,26,30.09,30.01,29.86,18,13,6,14,5,,0.00,,,105
2013-5-8,64,57,50,55,49,41,94,73,48,29.86,29.74,29.71,19,6,3,18,9,,0.02,5,Rain,202
2013-5-9,57,50,44,48,42,37,94,71,37,29.86,29.77,29.68,19,7,4,29,13,45,0.01,4,Rain,216
2013-5-10,64,56,48,48,45,41,87,71,43,29.95,29.83,29.68,18,7,6,25,15,30,0.01,4,Rain,244
2013-5-11,57,50,42,48,42,37,93,74,44,29.93,29.85,29.80,19,6,5,26,11,38,0.01,4,Rain,247
2013-5-12,59,50,41,50,43,37,94,77,33,30.04,29.96,29.92,19,7,4,17,12,28,0.01,5,Rain,255
2013-5-13,60,54,48,51,41,34,94,65,35,29.92,29.88,29.80,19,7,4,28,14,33,0.00,3,Rain,257
2013-5-14,53,49,45,48,42,37,94,78,54,29.83,29.62,29.24,19,7,4,22,11,41,0.20,5,Rain,203
2013-5-15,57,50,43,43,39,34,93,69,41,29.56,29.36,29.15,19,7,6,23,17,33,0.01,4,Rain,226
2013-5-16,62,50,38,46,39,34,100,68,32,29.56,29.52,29.47,19,7,4,14,4,20,0.01,1,Fog-Rain-Thunderstorm,135
2013-5-17,54,49,44,46,43,38,93,76,57,29.83,29.71,29.56,19,7,4,9,5,,0.00,4,Rain,37
2013-5-18,60,54,47,45,43,32,87,67,38,29.81,29.77,29.71,18,7,5,13,6,,0.00,4,,306
2013-5-19,65,56,47,50,45,34,87,65,40,29.92,29.87,29.79,18,7,4,9,5,,0.00,3,,19
2013-5-20,63,57,51,59,51,45,88,78,59,29.92,29.88,29.86,9,5,3,10,7,,0.00,6,Rain,332
2013-5-21,59,56,53,56,47,39,88,68,51,30.09,30.00,29.92,14,6,3,10,8,,0.01,6,Rain,1
2013-5-22,59,54,46,46,40,30,87,62,40,30.11,30.08,30.04,19,7,4,13,7,,0.00,5,,317
2013-5-23,53,48,42,38,34,21,81,61,37,30.02,29.94,29.89,19,7,6,14,10,,0.00,3,Rain,315
2013-5-24,49,45,41,45,40,35,93,82,68,30.04,29.81,29.62,16,7,4,16,11,26,0.16,5,Rain,314
2013-5-25,61,51,41,41,38,16,93,64,25,30.18,30.14,30.04,19,8,5,9,7,,0.00,3,,352
2013-5-26,67,54,42,41,39,34,93,56,23,30.15,30.07,29.98,16,9,6,14,7,,0.00,1,,290
2013-5-27,64,53,42,45,39,27,93,58,23,29.98,29.79,29.65,19,8,5,22,10,31,0.00,3,,208
2013-5-28,53,51,48,52,47,40,100,87,48,29.62,29.54,29.47,19,6,1,12,6,,0.55,5,Rain,188
2013-5-29,55,50,45,54,48,43,100,90,68,29.77,29.67,29.56,19,7,3,9,6,,0.02,5,Rain,304
2013-5-30,59,55,51,52,51,48,100,85,63,30.01,29.85,29.74,14,6,1,12,7,,0.02,6,Rain,355
2013-5-31,71,62,52,54,50,46,88,68,40,30.12,30.07,30.01,18,7,5,10,6,,0.00,5,,342